Time;durP1;ratioP1;P1;durP2;ratioP2;P2;SDS_P1;SDS_P2;PMS_P1;PMS_P2;Temp;Humidity;BMP_temperature;BMP_pressure;BME280_temperature;BME280_humidity;BME280_pressure;Samples;Min_cycle;Max_cycle;Signal;HPM_P1;HPM_P2
2023/11/24 00:00:48;;;;;;;1.50;1.10;;;;;;;11.03;63.28;97364.56;5060728;28;20438;-72
2023/11/24 00:03:13;;;;;;;1.80;1.10;;;;;;;10.89;63.82;97353.63;5068874;28;20520;-71
2023/11/24 00:05:39;;;;;;;1.03;0.90;;;;;;;10.89;64.21;97348.38;5071192;28;20214;-71
2023/11/24 00:08:05;;;;;;;1.93;1.00;;;;;;;10.72;65.14;97344.81;5069287;28;20224;-71
2023/11/24 00:10:30;;;;;;;1.30;1.07;;;;;;;10.83;64.53;97350.78;5069458;28;20421;-71
2023/11/24 00:12:56;;;;;;;1.30;1.10;;;;;;;10.86;64.70;97351.31;5068604;28;20275;-70
2023/11/24 00:15:22;;;;;;;1.87;1.40;;;;;;;10.96;64.65;97345.19;5059947;28;20195;-71
2023/11/24 00:17:50;;;;;;;1.83;1.20;;;;;;;10.85;65.02;97328.69;5065577;28;20475;-71
2023/11/24 00:20:15;;;;;;;1.50;1.10;;;;;;;10.78;65.46;97324.19;5058270;28;20446;-73
2023/11/24 00:22:41;;;;;;;1.10;1.00;;;;;;;10.67;65.79;97309.53;5063193;28;20488;-73
2023/11/24 00:25:07;;;;;;;2.80;1.63;;;;;;;10.71;65.93;97309.06;5066985;28;20854;-72
2023/11/24 00:27:32;;;;;;;1.40;1.13;;;;;;;10.64;66.14;97304.56;5069352;28;20760;-72
2023/11/24 00:29:58;;;;;;;1.23;1.07;;;;;;;10.67;66.05;97317.41;5065462;28;20664;-72
2023/11/24 00:32:24;;;;;;;1.30;1.10;;;;;;;10.74;65.73;97316.66;5070245;28;20229;-71
2023/11/24 00:34:50;;;;;;;1.17;0.97;;;;;;;10.43;66.43;97292.59;5061320;28;20739;-72
2023/11/24 00:37:17;;;;;;;1.50;1.23;;;;;;;10.63;66.21;97288.03;5070889;28;20499;-72
2023/11/24 00:39:44;;;;;;;1.90;1.40;;;;;;;10.64;66.00;97275.75;5070113;28;20236;-72
2023/11/24 00:42:10;;;;;;;1.83;1.20;;;;;;;10.62;66.09;97273.28;5066620;28;20493;-70
2023/11/24 00:44:35;;;;;;;1.53;1.27;;;;;;;10.57;66.35;97267.66;5061971;28;20455;-72
2023/11/24 00:47:01;;;;;;;2.10;1.40;;;;;;;10.54;66.13;97257.47;5068563;28;20232;-71
2023/11/24 00:49:26;;;;;;;1.17;1.07;;;;;;;10.57;66.44;97263.25;5049078;28;20274;-71
2023/11/24 00:51:52;;;;;;;1.30;1.20;;;;;;;10.35;67.07;97250.56;5069848;28;20277;-70
2023/11/24 00:54:17;;;;;;;5.00;1.30;;;;;;;10.27;67.14;97222.53;5057732;28;20701;-71
2023/11/24 00:56:43;;;;;;;1.50;1.40;;;;;;;10.38;66.80;97222.31;5064936;28;20228;-71
2023/11/24 00:59:08;;;;;;;1.73;1.33;;;;;;;10.51;66.71;97215.88;5067174;28;20649;-69
2023/11/24 01:01:34;;;;;;;1.60;1.20;;;;;;;10.61;66.27;97221.84;5070360;28;20269;-71
2023/11/24 01:03:59;;;;;;;1.80;1.70;;;;;;;10.58;66.20;97222.13;5060526;28;20207;-74
2023/11/24 01:06:25;;;;;;;2.07;1.60;;;;;;;10.39;66.36;97203.00;5070009;28;20225;-71
2023/11/24 01:08:50;;;;;;;3.20;1.40;;;;;;;10.43;66.55;97211.38;5069837;28;20775;-70
2023/11/24 01:11:16;;;;;;;1.50;1.40;;;;;;;10.40;66.35;97222.16;5056611;28;20260;-70
2023/11/24 01:13:41;;;;;;;3.33;1.63;;;;;;;10.53;66.04;97214.75;5070464;28;20215;-71
2023/11/24 01:16:08;;;;;;;1.47;1.20;;;;;;;10.64;65.62;97213.69;5069202;28;20841;-71
2023/11/24 01:18:36;;;;;;;2.50;1.63;;;;;;;10.64;65.76;97215.47;5066727;28;20182;-71
2023/11/24 01:21:01;;;;;;;1.67;1.57;;;;;;;10.63;65.86;97219.06;5068068;28;20519;-70
2023/11/24 01:23:28;;;;;;;1.50;1.13;;;;;;;10.54;66.02;97221.63;5067015;28;20856;-70
2023/11/24 01:25:54;;;;;;;1.93;1.30;;;;;;;10.63;65.49;97206.78;5069262;28;20199;-70
2023/11/24 01:28:22;;;;;;;3.53;1.40;;;;;;;10.65;65.87;97207.44;5065656;28;20471;-72
2023/11/24 01:30:47;;;;;;;1.33;1.20;;;;;;;10.75;65.48;97212.59;5069035;28;20945;-69
2023/11/24 01:33:13;;;;;;;1.30;1.20;;;;;;;10.81;65.58;97221.66;5068204;28;20441;-71
2023/11/24 01:35:38;;;;;;;1.23;1.13;;;;;;;10.83;65.32;97231.03;5068009;28;20556;-71
2023/11/24 01:38:04;;;;;;;1.40;1.30;;;;;;;10.88;65.32;97231.38;5067715;28;20221;-70
2023/11/24 01:40:29;;;;;;;2.37;1.20;;;;;;;10.84;65.47;97235.25;5068893;28;20186;-70
2023/11/24 01:42:55;;;;;;;1.10;1.00;;;;;;;10.80;65.63;97238.34;5065660;28;20267;-69
2023/11/24 01:45:20;;;;;;;1.77;1.17;;;;;;;10.74;65.94;97235.38;5061206;28;20277;-68
2023/11/24 01:47:47;;;;;;;1.27;1.17;;;;;;;10.83;65.85;97243.28;5066143;28;20552;-69
2023/11/24 01:50:13;;;;;;;3.03;1.30;;;;;;;10.86;65.78;97256.09;5059792;28;20281;-70
2023/11/24 01:52:39;;;;;;;1.33;1.20;;;;;;;10.89;65.62;97246.13;5050185;28;20475;-68
2023/11/24 01:55:06;;;;;;;1.80;1.70;;;;;;;10.78;66.10;97235.91;5047580;28;20425;-70
2023/11/24 01:57:31;;;;;;;1.50;1.40;;;;;;;10.87;65.95;97226.28;5044282;28;20209;-71
2023/11/24 01:59:58;;;;;;;2.20;1.20;;;;;;;10.82;66.26;97226.75;5068487;28;21001;-72
2023/11/24 02:02:24;;;;;;;2.60;1.60;;;;;;;10.86;66.17;97220.22;5049886;28;20186;-70
2023/11/24 02:04:50;;;;;;;1.50;1.40;;;;;;;10.82;66.50;97221.50;5066094;28;21101;-70
2023/11/24 02:07:16;;;;;;;1.40;1.30;;;;;;;10.70;66.89;97209.63;5067269;28;20465;-70
2023/11/24 02:09:41;;;;;;;1.57;1.47;;;;;;;10.59;67.55;97208.88;5050227;28;20197;-71
2023/11/24 02:12:07;;;;;;;1.90;1.70;;;;;;;10.60;67.63;97209.72;5067629;28;20657;-72
2023/11/24 02:14:32;;;;;;;2.13;1.57;;;;;;;10.64;67.93;97212.84;5049862;28;20304;-72
2023/11/24 02:16:59;;;;;;;2.40;1.70;;;;;;;10.50;67.89;97201.13;5068315;28;20441;-72
2023/11/24 02:19:25;;;;;;;1.53;1.43;;;;;;;10.43;68.36;97198.28;5064388;28;20194;-71
2023/11/24 02:21:50;;;;;;;1.80;1.60;;;;;;;10.59;68.13;97192.34;5048403;28;20433;-70
2023/11/24 02:24:16;;;;;;;1.90;1.43;;;;;;;10.54;68.13;97198.03;5065545;28;20459;-70
2023/11/24 02:26:41;;;;;;;1.93;1.50;;;;;;;10.73;67.94;97188.34;5063478;28;20238;-71
2023/11/24 02:29:08;;;;;;;1.30;1.20;;;;;;;10.67;68.09;97183.72;5059191;28;20319;-69
2023/11/24 02:31:34;;;;;;;1.50;1.40;;;;;;;10.75;67.92;97186.38;5066338;28;20186;-72
2023/11/24 02:33:59;;;;;;;1.20;1.10;;;;;;;10.83;67.66;97189.06;5067823;28;20459;-71
2023/11/24 02:36:30;;;;;;;1.13;1.03;;;;;;;10.83;67.54;97189.06;5066452;28;20693;-70
2023/11/24 02:38:55;;;;;;;1.10;1.00;;;;;;;10.86;67.79;97188.75;5065967;28;20186;-70
2023/11/24 02:41:21;;;;;;;1.50;1.30;;;;;;;10.86;67.84;97175.63;5058971;28;20503;-71
2023/11/24 02:43:46;;;;;;;1.00;0.90;;;;;;;10.87;67.79;97179.09;5067727;28;20206;-71
2023/11/24 02:46:13;;;;;;;1.10;0.90;;;;;;;10.95;67.79;97175.72;5066314;28;20289;-70
2023/11/24 02:48:39;;;;;;;1.10;0.97;;;;;;;10.93;67.86;97175.03;5059334;28;20265;-71
2023/11/24 02:51:05;;;;;;;1.00;0.90;;;;;;;10.95;67.80;97165.22;5053178;28;20425;-70
2023/11/24 02:53:30;;;;;;;1.10;1.00;;;;;;;10.93;67.91;97161.91;5066147;28;21216;-73
2023/11/24 02:55:56;;;;;;;1.00;0.80;;;;;;;10.89;68.20;97167.47;5060145;28;20254;-72
2023/11/24 02:58:25;;;;;;;2.13;0.80;;;;;;;10.87;68.13;97151.06;5057014;28;20192;-70
2023/11/24 03:00:50;;;;;;;1.00;0.90;;;;;;;10.88;68.28;97151.91;5067744;28;20178;-70
2023/11/24 03:03:16;;;;;;;0.97;0.87;;;;;;;10.84;68.75;97147.94;5065664;28;20448;-70
2023/11/24 03:05:41;;;;;;;1.70;0.83;;;;;;;10.88;68.45;97150.09;5065874;28;20210;-69
2023/11/24 03:08:08;;;;;;;1.00;0.90;;;;;;;10.81;68.27;97148.25;5061906;28;20183;-70
2023/11/24 03:10:33;;;;;;;1.00;0.70;;;;;;;10.86;68.45;97141.56;5067666;28;20214;-70
2023/11/24 03:12:59;;;;;;;2.50;1.00;;;;;;;10.82;68.41;97135.00;5063823;28;20926;-71
2023/11/24 03:15:25;;;;;;;1.10;0.80;;;;;;;10.86;68.31;97131.06;5069955;28;20269;-71
2023/11/24 03:17:50;;;;;;;1.00;0.90;;;;;;;10.77;68.36;97145.13;5071439;28;20185;-71
2023/11/24 03:20:16;;;;;;;1.10;0.90;;;;;;;10.70;68.74;97128.38;5062514;28;20989;-71
2023/11/24 03:22:42;;;;;;;0.90;0.77;;;;;;;10.79;68.29;97144.94;5071367;28;20347;-72
2023/11/24 03:25:09;;;;;;;1.60;0.90;;;;;;;10.81;68.44;97133.34;5070572;28;20186;-70
2023/11/24 03:27:34;;;;;;;2.03;0.70;;;;;;;10.82;68.33;97126.28;5070671;28;20448;-71
2023/11/24 03:29:59;;;;;;;2.70;0.60;;;;;;;10.70;68.15;97120.50;5071205;28;20485;-71
2023/11/24 03:32:27;;;;;;;1.07;0.83;;;;;;;10.71;68.26;97116.91;5064657;28;20214;-72
2023/11/24 03:34:53;;;;;;;2.50;0.80;;;;;;;10.78;67.77;97111.84;5071011;28;20343;-71
2023/11/24 03:37:19;;;;;;;1.00;0.90;;;;;;;10.60;68.38;97100.44;5069043;28;20413;-70
2023/11/24 03:39:44;;;;;;;0.90;0.80;;;;;;;10.56;68.39;97096.53;5057642;28;20427;-70
2023/11/24 03:42:09;;;;;;;1.23;0.90;;;;;;;10.57;68.51;97066.72;5060204;28;20719;-69
2023/11/24 03:44:35;;;;;;;1.33;0.83;;;;;;;10.60;68.45;97066.38;5056614;28;20289;-70
2023/11/24 03:47:00;;;;;;;0.90;0.80;;;;;;;10.61;68.21;97059.34;5070863;28;20293;-71
2023/11/24 03:49:26;;;;;;;1.10;0.80;;;;;;;10.59;68.28;97056.88;5052507;28;20194;-70
2023/11/24 03:51:52;;;;;;;0.90;0.70;;;;;;;10.53;68.23;97049.66;5070452;28;20184;-71
2023/11/24 03:54:21;;;;;;;0.90;0.70;;;;;;;10.50;68.39;97057.81;5069110;28;20209;-69
2023/11/24 03:56:47;;;;;;;1.00;0.80;;;;;;;10.46;68.02;97051.22;5068965;28;20191;-69
2023/11/24 03:59:13;;;;;;;0.90;0.73;;;;;;;10.59;68.03;97056.88;5069478;28;20482;-70
2023/11/24 04:01:38;;;;;;;0.90;0.80;;;;;;;10.72;67.70;97066.09;5067008;28;20424;-70
2023/11/24 04:04:04;;;;;;;1.00;0.70;;;;;;;10.58;67.92;97059.66;5070519;28;20207;-71
2023/11/24 04:06:30;;;;;;;0.80;0.70;;;;;;;10.66;67.95;97056.28;5069202;28;20619;-70
2023/11/24 04:08:55;;;;;;;1.20;0.80;;;;;;;10.60;67.83;97071.63;5056080;28;20183;-70
2023/11/24 04:11:21;;;;;;;0.90;0.70;;;;;;;10.67;67.96;97055.28;5066931;28;20247;-69
2023/11/24 04:13:47;;;;;;;0.97;0.57;;;;;;;10.74;67.76;97053.66;5068359;28;20203;-70
2023/11/24 04:16:14;;;;;;;0.90;0.60;;;;;;;10.74;67.52;97064.16;5070559;28;20421;-71
2023/11/24 04:18:40;;;;;;;0.80;0.60;;;;;;;10.69;67.62;97056.78;5066294;28;20650;-71
2023/11/24 04:21:06;;;;;;;2.93;0.70;;;;;;;10.73;67.66;97044.16;5070211;28;20435;-70
2023/11/24 04:23:31;;;;;;;0.80;0.60;;;;;;;10.67;67.49;97042.19;5063903;28;20452;-70
2023/11/24 04:25:56;;;;;;;1.53;0.63;;;;;;;10.64;67.52;97026.78;5070453;28;20220;-71
2023/11/24 04:28:22;;;;;;;0.80;0.63;;;;;;;10.60;67.53;97027.06;5061565;28;20189;-68
2023/11/24 04:30:47;;;;;;;0.80;0.60;;;;;;;10.46;67.89;97035.50;5069580;28;20251;-71
2023/11/24 04:33:13;;;;;;;0.90;0.80;;;;;;;10.48;67.75;97041.41;5062140;28;20269;-71
2023/11/24 04:35:38;;;;;;;1.40;0.80;;;;;;;10.43;67.94;97025.38;5068969;28;20186;-69
2023/11/24 04:38:04;;;;;;;0.93;0.70;;;;;;;10.48;68.00;97020.47;5069547;28;20463;-69
2023/11/24 04:40:29;;;;;;;0.90;0.80;;;;;;;10.61;67.39;97017.44;5061389;28;20649;-69
2023/11/24 04:42:55;;;;;;;1.83;0.80;;;;;;;10.59;67.54;97020.19;5060840;28;20818;-70
2023/11/24 04:45:20;;;;;;;1.37;0.67;;;;;;;10.67;67.71;97014.16;5067836;28;20263;-71
2023/11/24 04:47:46;;;;;;;0.87;0.60;;;;;;;10.72;67.40;97021.53;5068656;28;20207;-71
2023/11/24 04:50:17;;;;;;;1.00;0.70;;;;;;;10.75;67.26;97021.25;5067768;28;20187;-69
2023/11/24 04:52:42;;;;;;;1.57;0.73;;;;;;;10.72;67.29;97008.44;5055319;28;20186;-72
2023/11/24 04:55:08;;;;;;;1.17;0.70;;;;;;;10.76;67.35;97004.53;5068580;28;20841;-69
2023/11/24 04:57:33;;;;;;;0.80;0.60;;;;;;;10.65;67.79;97002.19;5065177;28;20182;-71
2023/11/24 05:00:00;;;;;;;0.80;0.60;;;;;;;10.82;67.37;97030.13;5057622;28;20186;-69
2023/11/24 05:02:27;;;;;;;0.90;0.80;;;;;;;10.84;67.42;97075.34;5050794;28;20182;-70
2023/11/24 05:04:54;;;;;;;2.00;0.93;;;;;;;10.77;66.96;97090.06;5065353;28;20429;-70
2023/11/24 05:07:21;;;;;;;3.70;0.87;;;;;;;10.68;65.20;97085.75;5064628;28;20457;-70
2023/11/24 05:09:47;;;;;;;2.77;1.20;;;;;;;10.70;64.50;97082.00;5063623;28;20459;-70
2023/11/24 05:12:13;;;;;;;2.90;1.20;;;;;;;10.70;64.47;97081.19;5069351;28;20421;-72
2023/11/24 05:14:39;;;;;;;2.20;1.00;;;;;;;10.61;64.25;97072.47;5067940;28;20978;-71
2023/11/24 05:17:05;;;;;;;3.57;1.00;;;;;;;10.54;64.02;97074.88;5065303;28;20454;-70
2023/11/24 05:19:31;;;;;;;3.30;1.30;;;;;;;10.55;64.42;97060.81;5055975;28;20754;-70
2023/11/24 05:21:56;;;;;;;3.63;1.03;;;;;;;10.56;64.38;97057.22;5065984;28;20186;-70
2023/11/24 05:24:21;;;;;;;4.60;1.43;;;;;;;10.54;64.54;97059.16;5067975;28;20297;-70
2023/11/24 05:26:47;;;;;;;5.07;1.37;;;;;;;10.50;64.18;97057.81;5057058;28;20292;-71
2023/11/24 05:29:13;;;;;;;3.07;1.37;;;;;;;10.48;63.85;97044.03;5066520;28;20233;-71
2023/11/24 05:31:38;;;;;;;3.20;1.20;;;;;;;10.44;63.79;97042.72;5056034;28;20213;-70
2023/11/24 05:34:04;;;;;;;3.93;1.10;;;;;;;10.48;63.86;97053.72;5059696;28;20209;-72
2023/11/24 05:36:29;;;;;;;3.93;1.20;;;;;;;10.45;64.30;97050.44;5060421;28;20273;-71
2023/11/24 05:38:56;;;;;;;5.33;1.77;;;;;;;10.49;64.45;97050.94;5068108;28;20183;-70
2023/11/24 05:41:21;;;;;;;5.00;1.60;;;;;;;10.50;64.33;97047.34;5058424;28;20604;-70
2023/11/24 05:43:47;;;;;;;3.00;1.43;;;;;;;10.55;64.34;97045.09;5067148;28;20457;-69
2023/11/24 05:46:13;;;;;;;3.60;1.30;;;;;;;10.58;64.26;97044.78;5062240;28;20223;-72
2023/11/24 05:48:38;;;;;;;1.97;1.00;;;;;;;10.60;64.18;97042.00;5064860;28;20436;-70
2023/11/24 05:51:05;;;;;;;3.03;1.13;;;;;;;10.55;64.27;97045.09;5064279;28;20281;-71
2023/11/24 05:53:30;;;;;;;3.27;1.50;;;;;;;10.56;64.28;97041.50;5065783;28;20206;-71
2023/11/24 05:55:56;;;;;;;3.33;1.20;;;;;;;10.54;64.24;97032.13;5067564;28;20424;-69
2023/11/24 05:58:22;;;;;;;4.00;1.10;;;;;;;10.51;64.18;97032.44;5067569;28;20190;-71
2023/11/24 06:00:48;;;;;;;4.07;1.40;;;;;;;10.44;64.34;97043.53;5057777;28;20464;-71
2023/11/24 06:03:14;;;;;;;3.97;1.10;;;;;;;10.46;64.15;97040.75;5067758;28;20213;-71
2023/11/24 06:05:40;;;;;;;4.43;1.27;;;;;;;10.48;64.14;97038.00;5067254;28;20425;-71
2023/11/24 06:08:05;;;;;;;4.03;1.53;;;;;;;10.39;64.17;97039.75;5061578;28;20467;-71
2023/11/24 06:10:31;;;;;;;3.27;1.10;;;;;;;10.35;63.75;97023.50;5065359;28;20194;-69
2023/11/24 06:12:57;;;;;;;5.03;1.90;;;;;;;10.40;64.18;97030.91;5054756;28;20207;-69
2023/11/24 06:15:24;;;;;;;4.20;1.30;;;;;;;10.42;64.30;97019.28;5058164;28;20424;-71
2023/11/24 06:17:49;;;;;;;4.43;1.37;;;;;;;10.41;64.28;97024.69;5066151;28;20511;-70
2023/11/24 06:20:16;;;;;;;8.43;1.80;;;;;;;10.41;64.15;97033.38;5063737;28;20210;-69
2023/11/24 06:22:43;;;;;;;3.53;1.50;;;;;;;10.41;64.31;97030.75;5048854;28;20205;-72
2023/11/24 06:25:10;;;;;;;6.20;1.80;;;;;;;10.39;64.29;97026.66;5066386;28;20433;-72
2023/11/24 06:27:36;;;;;;;5.90;1.77;;;;;;;10.42;64.62;97016.66;5058471;28;21044;-73
2023/11/24 06:30:05;;;;;;;5.97;1.70;;;;;;;10.44;64.47;97014.72;5066016;28;21060;-71
2023/11/24 06:32:31;;;;;;;6.40;1.43;;;;;;;10.44;64.45;97014.72;5062221;28;20441;-70
2023/11/24 06:34:56;;;;;;;5.37;1.40;;;;;;;10.47;64.33;97005.72;5060676;28;20448;-70
2023/11/24 06:37:22;;;;;;;3.50;2.10;;;;;;;10.51;64.39;97012.28;5067333;28;20187;-70
2023/11/24 06:39:47;;;;;;;5.23;1.87;;;;;;;10.50;64.44;97013.28;5061866;28;20191;-69
2023/11/24 06:42:13;;;;;;;8.30;1.60;;;;;;;10.52;64.38;97013.94;5057664;28;20198;-70
2023/11/24 06:44:38;;;;;;;3.67;1.20;;;;;;;10.56;64.06;97009.19;5064927;28;20294;-70
2023/11/24 06:47:04;;;;;;;2.13;1.03;;;;;;;10.53;64.00;97005.09;5067008;28;20252;-72
2023/11/24 06:49:29;;;;;;;4.20;1.33;;;;;;;10.55;63.89;96997.91;5054909;28;20194;-69
2023/11/24 06:51:55;;;;;;;4.60;1.20;;;;;;;10.57;64.05;96995.13;5054279;28;20202;-70
2023/11/24 06:54:21;;;;;;;5.33;1.60;;;;;;;10.58;63.77;96997.59;5063504;28;20217;-71
2023/11/24 06:56:46;;;;;;;5.40;1.40;;;;;;;10.58;63.74;96979.25;5063586;28;20710;-70
2023/11/24 06:59:12;;;;;;;6.53;1.80;;;;;;;10.60;63.89;96982.53;5060310;28;20216;-72
2023/11/24 07:01:38;;;;;;;4.80;1.33;;;;;;;10.58;63.23;96975.81;5061494;28;20213;-70
2023/11/24 07:04:04;;;;;;;8.13;1.80;;;;;;;10.59;63.27;96982.69;5062330;28;20221;-69
2023/11/24 07:06:30;;;;;;;6.33;1.60;;;;;;;10.59;63.52;96967.78;5065374;28;20453;-69
2023/11/24 07:08:55;;;;;;;3.93;1.70;;;;;;;10.62;63.38;96963.19;5057485;28;20186;-70
2023/11/24 07:11:21;;;;;;;6.00;1.50;;;;;;;10.65;63.56;96968.13;5063290;28;20796;-70
2023/11/24 07:13:47;;;;;;;2.00;1.30;;;;;;;10.65;63.44;96966.31;5048537;28;20214;-69
2023/11/24 07:16:16;;;;;;;6.67;1.93;;;;;;;10.68;63.24;96957.34;5065742;28;20433;-73
2023/11/24 07:18:41;;;;;;;4.00;1.30;;;;;;;10.68;63.09;96954.72;5025735;28;20193;-70
2023/11/24 07:21:07;;;;;;;7.50;1.93;;;;;;;10.71;62.87;96949.97;5061284;28;20432;-72
2023/11/24 07:23:33;;;;;;;3.40;1.93;;;;;;;10.74;63.01;96949.66;5064302;28;20206;-70
2023/11/24 07:25:58;;;;;;;7.37;1.63;;;;;;;10.78;63.00;96954.56;5067403;28;20991;-70
2023/11/24 07:28:24;;;;;;;6.13;1.57;;;;;;;10.78;62.99;96960.66;5064537;28;20201;-69
2023/11/24 07:30:49;;;;;;;4.40;1.60;;;;;;;10.78;63.05;96954.56;5065831;28;20193;-70
2023/11/24 07:33:15;;;;;;;4.10;1.40;;;;;;;10.82;62.90;96967.22;5063583;28;20194;-70
2023/11/24 07:35:41;;;;;;;11.03;1.73;;;;;;;10.79;63.00;96962.28;5066806;28;20237;-70
2023/11/24 07:38:06;;;;;;;9.67;1.40;;;;;;;10.79;63.04;96962.28;5067245;28;20290;-71
2023/11/24 07:40:32;;;;;;;5.20;1.53;;;;;;;10.82;63.47;96956.72;5067377;28;20182;-69
2023/11/24 07:42:57;;;;;;;6.50;1.57;;;;;;;10.83;63.47;96942.66;5063265;28;20285;-70
2023/11/24 07:45:23;;;;;;;11.70;1.67;;;;;;;10.87;63.48;96940.53;5060050;28;20190;-71
2023/11/24 07:47:48;;;;;;;2.60;1.27;;;;;;;10.86;63.83;96938.88;5057742;28;20700;-71
2023/11/24 07:50:14;;;;;;;5.67;1.50;;;;;;;10.90;63.96;96948.03;5066027;28;20194;-72
2023/11/24 07:52:39;;;;;;;1.80;1.10;;;;;;;10.95;64.14;96942.34;5065026;28;20194;-70
2023/11/24 07:55:05;;;;;;;2.67;1.30;;;;;;;10.95;64.20;96943.16;5065381;28;20696;-73
2023/11/24 07:57:31;;;;;;;3.17;1.27;;;;;;;10.98;64.30;96934.97;5066444;28;20187;-73
2023/11/24 07:59:58;;;;;;;5.43;1.60;;;;;;;10.97;64.12;96906.25;5067102;28;20563;-72
2023/11/24 08:02:25;;;;;;;4.10;1.40;;;;;;;11.01;63.97;96895.31;5072366;28;20444;-72
2023/11/24 08:04:50;;;;;;;10.07;2.40;;;;;;;11.05;63.92;96903.66;5067996;28;20444;-70
2023/11/24 08:07:17;;;;;;;2.73;1.63;;;;;;;11.03;63.95;96909.06;5063226;28;20489;-69
2023/11/24 08:09:43;;;;;;;6.37;1.80;;;;;;;11.04;63.60;96909.91;5054998;28;20277;-70
2023/11/24 08:12:09;;;;;;;5.33;1.70;;;;;;;11.07;63.57;96912.19;5065693;28;20902;-72
2023/11/24 08:14:35;;;;;;;6.00;2.17;;;;;;;11.12;63.34;96898.59;5067703;28;20487;-70
2023/11/24 08:17:00;;;;;;;9.33;2.17;;;;;;;11.11;63.12;96896.97;5066738;28;20193;-71
2023/11/24 08:19:26;;;;;;;3.70;1.70;;;;;;;11.12;62.66;96898.59;5062958;28;20214;-73
2023/11/24 08:21:51;;;;;;;6.53;2.13;;;;;;;11.14;62.72;96902.69;5069869;28;20230;-72
2023/11/24 08:24:17;;;;;;;9.93;2.90;;;;;;;11.13;62.78;96895.81;5070502;28;20208;-72
2023/11/24 08:26:43;;;;;;;9.50;2.43;;;;;;;11.18;62.36;96890.06;5061275;28;20294;-72
2023/11/24 08:29:09;;;;;;;4.13;1.67;;;;;;;11.14;62.46;96888.78;5069633;28;20178;-72
2023/11/24 08:31:34;;;;;;;6.77;2.30;;;;;;;11.12;62.18;96878.41;5068965;28;20436;-73
2023/11/24 08:34:00;;;;;;;7.53;1.93;;;;;;;11.12;62.09;96875.81;5064617;28;20312;-72
2023/11/24 08:36:26;;;;;;;6.63;1.83;;;;;;;11.14;61.64;96880.91;5064626;28;20256;-72
2023/11/24 08:38:52;;;;;;;4.97;1.90;;;;;;;11.15;62.00;96880.72;5068404;28;20274;-72
2023/11/24 08:41:18;;;;;;;8.63;2.17;;;;;;;11.14;62.06;96880.91;5061127;28;20503;-72
2023/11/24 08:43:47;;;;;;;4.97;1.70;;;;;;;11.08;61.71;96890.25;5051119;28;20501;-72
2023/11/24 08:46:13;;;;;;;9.37;2.13;;;;;;;11.17;62.07;96891.88;5062747;28;20259;-73
2023/11/24 08:48:39;;;;;;;3.33;2.00;;;;;;;11.22;62.09;96881.69;5069621;28;20432;-73
2023/11/24 08:51:07;;;;;;;4.07;1.90;;;;;;;11.28;61.80;96879.41;5048046;28;20183;-74
2023/11/24 08:53:34;;;;;;;6.73;1.93;;;;;;;11.38;62.09;96882.69;5069438;28;20535;-74
2023/11/24 08:56:05;;;;;;;10.57;2.33;;;;;;;11.42;61.91;96875.28;5061945;28;20425;-70
2023/11/24 08:58:31;;;;;;;5.17;2.10;;;;;;;11.48;61.77;96877.25;5068114;28;20523;-70
2023/11/24 09:00:57;;;;;;;5.70;1.80;;;;;;;11.60;61.40;96864.59;5060959;28;20511;-69
2023/11/24 09:03:25;;;;;;;5.73;1.97;;;;;;;11.69;61.77;96874.13;5067811;28;20544;-69
2023/11/24 09:05:57;;;;;;;10.93;2.27;;;;;;;11.69;61.24;96868.88;5067071;28;20190;-69
2023/11/24 09:08:23;;;;;;;6.00;1.90;;;;;;;11.67;61.00;96865.59;5065986;28;20941;-71
2023/11/24 09:10:48;;;;;;;8.43;2.10;;;;;;;11.64;61.29;96863.28;5056412;28;20428;-71
2023/11/24 09:13:14;;;;;;;7.93;2.53;;;;;;;11.58;60.98;96867.41;5061148;28;20210;-73
2023/11/24 09:15:43;;;;;;;9.57;2.53;;;;;;;11.50;60.42;96865.59;5049702;28;20267;-72
2023/11/24 09:18:09;;;;;;;8.10;2.40;;;;;;;11.42;60.66;96849.88;5062660;28;20426;-71
2023/11/24 09:20:34;;;;;;;9.10;2.60;;;;;;;11.44;61.05;96849.72;5067149;28;20467;-73
2023/11/24 09:23:00;;;;;;;11.37;2.33;;;;;;;11.42;61.38;96857.75;5063643;28;20468;-73
2023/11/24 09:25:26;;;;;;;8.73;3.03;;;;;;;11.34;60.82;96860.41;5069145;28;20186;-73
2023/11/24 09:27:52;;;;;;;9.43;2.00;;;;;;;11.27;61.05;96862.88;5068101;28;20950;-72
2023/11/24 09:30:17;;;;;;;8.47;2.50;;;;;;;11.25;61.18;96867.44;5067384;28;20464;-74
2023/11/24 09:32:43;;;;;;;7.60;2.40;;;;;;;11.21;61.00;96855.63;5045769;28;20993;-72
2023/11/24 09:35:09;;;;;;;6.00;2.40;;;;;;;11.22;60.72;96852.84;5054368;28;20220;-73
2023/11/24 09:37:35;;;;;;;13.20;2.77;;;;;;;11.29;60.71;96853.00;5059610;28;20190;-72
2023/11/24 09:40:03;;;;;;;6.50;2.57;;;;;;;11.31;60.55;96843.16;5060364;28;20825;-71
2023/11/24 09:42:39;;;;;;;8.70;2.40;;;;;;;11.32;60.25;96850.06;5039718;28;20433;-72
2023/11/24 09:45:13;;;;;;;9.33;2.57;;;;;;;11.36;60.16;96842.66;5061075;28;20561;-71
2023/11/24 09:47:44;;;;;;;11.50;2.80;;;;;;;11.42;60.12;96846.44;5061660;28;20461;-71
2023/11/24 09:50:12;;;;;;;16.13;2.23;;;;;;;11.43;60.16;96837.56;5059047;28;20768;-73
2023/11/24 09:52:42;;;;;;;13.73;2.90;;;;;;;11.33;59.07;96838.56;5068524;28;20444;-72
2023/11/24 09:55:08;;;;;;;12.27;3.07;;;;;;;11.31;58.74;96837.13;5061817;28;20664;-72
2023/11/24 09:57:33;;;;;;;11.90;3.10;;;;;;;11.32;58.45;96836.94;5060324;28;20477;-72
2023/11/24 09:59:59;;;;;;;10.77;2.23;;;;;;;11.37;58.53;96818.06;5044235;28;20449;-72
2023/11/24 10:02:26;;;;;;;9.37;2.83;;;;;;;11.39;58.35;96813.47;5047711;28;20436;-72
2023/11/24 10:04:54;;;;;;;8.80;2.73;;;;;;;11.36;58.07;96813.81;5064185;28;20249;-71
2023/11/24 10:07:21;;;;;;;11.73;2.77;;;;;;;11.33;57.96;96798.41;5060924;28;20476;-71
2023/11/24 10:09:48;;;;;;;10.77;2.23;;;;;;;11.30;57.88;96789.06;5068901;28;20436;-70
2023/11/24 10:12:15;;;;;;;4.93;2.20;;;;;;;11.36;57.85;96784.94;5061004;28;20436;-72
2023/11/24 10:14:43;;;;;;;4.43;2.10;;;;;;;11.37;57.77;96770.84;5050798;28;20568;-72
2023/11/24 10:17:09;;;;;;;10.93;3.00;;;;;;;11.38;57.83;96767.25;5064850;28;20453;-73
2023/11/24 10:19:37;;;;;;;5.80;2.57;;;;;;;11.39;57.77;96755.75;5068204;28;20441;-72
2023/11/24 10:22:03;;;;;;;11.90;3.03;;;;;;;11.36;57.05;96758.72;5061302;28;20230;-71
2023/11/24 10:24:32;;;;;;;17.03;3.20;;;;;;;11.42;57.22;96762.47;5059242;28;20481;-70
2023/11/24 10:27:05;;;;;;;9.17;3.00;;;;;;;11.44;57.25;96748.22;5067727;28;20684;-71
2023/11/24 10:29:31;;;;;;;9.00;3.10;;;;;;;11.51;57.47;96751.78;5018852;28;21085;-70
2023/11/24 10:31:56;;;;;;;13.47;3.27;;;;;;;11.56;57.52;96748.66;5066932;28;20447;-70
2023/11/24 10:34:24;;;;;;;11.13;3.60;;;;;;;11.49;56.96;96748.50;5067429;28;20210;-70
2023/11/24 10:36:50;;;;;;;11.47;3.07;;;;;;;11.52;56.38;96740.31;5061956;28;20195;-70
2023/11/24 10:39:17;;;;;;;12.93;3.23;;;;;;;11.89;56.51;96739.81;5061098;28;20525;-73
2023/11/24 10:41:46;;;;;;;8.33;2.43;;;;;;;12.40;54.60;96736.75;5036143;28;20482;-71
2023/11/24 10:44:12;;;;;;;13.40;2.43;;;;;;;12.84;53.42;96719.50;5058104;28;20499;-73
2023/11/24 10:46:43;;;;;;;13.17;3.07;;;;;;;13.24;51.13;96724.53;5062669;28;20467;-71
2023/11/24 10:49:34;;;;;;;12.23;2.80;;;;;;;13.65;51.32;96724.91;5064116;28;20452;-72
2023/11/24 10:52:01;;;;;;;11.70;3.00;;;;;;;14.21;50.55;96714.78;5064485;28;20982;-72
2023/11/24 10:54:39;;;;;;;11.47;3.37;;;;;;;14.86;48.60;96702.41;5037371;28;20454;-74
2023/11/24 10:57:05;;;;;;;7.10;2.40;;;;;;;15.39;47.35;96700.28;5045396;28;20930;-71
2023/11/24 10:59:34;;;;;;;11.63;2.57;;;;;;;15.75;46.07;96696.59;5065454;28;20478;-73
2023/11/24 11:02:06;;;;;;;9.73;2.43;;;;;;;15.66;45.23;96690.66;5063095;28;20433;-72
2023/11/24 11:04:35;;;;;;;10.43;2.60;;;;;;;15.36;45.59;96693.56;5059494;28;20456;-71
2023/11/24 11:07:27;;;;;;;10.97;2.80;;;;;;;15.24;45.74;96676.66;5053398;28;20456;-72
2023/11/24 11:09:58;;;;;;;10.07;2.30;;;;;;;14.86;46.43;96673.38;5033673;28;20556;-73
2023/11/24 11:12:48;;;;;;;9.27;2.90;;;;;;;14.64;46.53;96653.28;5048719;28;20439;-72
2023/11/24 11:15:14;;;;;;;9.63;2.40;;;;;;;14.51;47.04;96652.19;5043694;28;20440;-75
2023/11/24 11:17:41;;;;;;;10.63;2.60;;;;;;;14.34;47.46;96651.66;5059757;28;20431;-73
2023/11/24 11:20:14;;;;;;;8.50;2.40;;;;;;;14.28;47.66;96652.41;5064022;28;20564;-72
2023/11/24 11:22:41;;;;;;;7.57;2.47;;;;;;;14.08;47.82;96647.75;5057148;28;20422;-73
2023/11/24 11:25:12;;;;;;;10.07;3.00;;;;;;;13.79;47.31;96646.88;5065545;28;20432;-72
2023/11/24 11:27:38;;;;;;;10.10;1.93;;;;;;;13.60;47.41;96639.56;5056231;28;20468;-74